Time;durP1;ratioP1;P1;durP2;ratioP2;P2;SDS_P1;SDS_P2;PMS_P1;PMS_P2;Temp;Humidity;BMP_temperature;BMP_pressure;BME280_temperature;BME280_humidity;BME280_pressure;Samples;Min_cycle;Max_cycle;Signal;HPM_P1;HPM_P2
2022/08/10 00:01:40;;;;;;;6.63;4.90;;;14.60;99.90;;;;;;4973502;28;20049;-79
2022/08/10 00:04:06;;;;;;;5.32;4.80;;;14.60;99.90;;;;;;5006569;28;20054;-79
2022/08/10 00:06:32;;;;;;;5.82;4.57;;;14.60;99.90;;;;;;4997639;28;20054;-79
2022/08/10 00:08:58;;;;;;;6.65;5.28;;;14.60;99.90;;;;;;4991284;28;20105;-79
2022/08/10 00:11:24;;;;;;;6.50;5.22;;;14.60;99.90;;;;;;4992383;28;20034;-79
2022/08/10 00:13:50;;;;;;;7.28;5.35;;;14.50;99.90;;;;;;4989109;28;20065;-79
2022/08/10 00:16:16;;;;;;;5.93;5.05;;;14.50;99.90;;;;;;5000100;28;20045;-83
2022/08/10 00:18:43;;;;;;;9.93;5.85;;;14.50;99.90;;;;;;4990879;28;20497;-79
2022/08/10 00:21:09;;;;;;;8.27;5.85;;;14.60;99.90;;;;;;4996384;28;20694;-79
2022/08/10 00:23:36;;;;;;;6.63;5.35;;;14.70;99.90;;;;;;5011692;28;20486;-80
2022/08/10 00:26:02;;;;;;;7.10;5.68;;;14.60;99.90;;;;;;5012333;28;20133;-79
2022/08/10 00:28:28;;;;;;;9.43;5.75;;;14.50;99.90;;;;;;4981383;28;20035;-80
2022/08/10 00:30:54;;;;;;;8.10;5.78;;;14.60;99.90;;;;;;4992893;28;20065;-80
2022/08/10 00:33:22;;;;;;;7.68;6.25;;;14.60;99.90;;;;;;4992846;28;20038;-80
2022/08/10 00:35:48;;;;;;;7.55;5.93;;;14.50;99.90;;;;;;5006605;28;20491;-79
2022/08/10 00:38:14;;;;;;;6.75;6.03;;;14.50;99.90;;;;;;4991763;28;20046;-80
2022/08/10 00:40:40;;;;;;;6.40;4.95;;;14.60;99.90;;;;;;5006555;28;20049;-80
2022/08/10 00:43:06;;;;;;;10.45;5.75;;;14.50;99.90;;;;;;5008053;28;20050;-79
2022/08/10 00:45:33;;;;;;;9.70;5.80;;;14.50;99.90;;;;;;5011990;28;20053;-79
2022/08/10 00:47:58;;;;;;;14.07;6.20;;;14.60;99.90;;;;;;4993974;28;20050;-79
2022/08/10 00:50:24;;;;;;;8.65;6.40;;;14.50;99.90;;;;;;4993696;28;20050;-80
2022/08/10 00:52:50;;;;;;;8.65;6.18;;;14.50;99.90;;;;;;5008729;28;20046;-80
2022/08/10 00:55:16;;;;;;;8.45;6.53;;;14.50;99.90;;;;;;5013358;28;20769;-79
2022/08/10 00:57:42;;;;;;;8.98;6.07;;;14.50;99.90;;;;;;4991038;28;20196;-79
2022/08/10 01:00:08;;;;;;;10.07;6.07;;;14.50;99.90;;;;;;4999936;28;20133;-79
2022/08/10 01:02:34;;;;;;;8.13;6.43;;;14.50;99.90;;;;;;4995664;28;20056;-78
2022/08/10 01:05:05;;;;;;;7.40;6.28;;;14.50;99.90;;;;;;5013343;28;20042;-79
2022/08/10 01:08:03;;;;;;;10.25;6.80;;;14.50;99.90;;;;;;4978149;28;20553;-80
2022/08/10 01:10:52;;;;;;;10.80;6.65;;;14.40;99.90;;;;;;4992563;28;20057;-78
2022/08/10 01:13:17;;;;;;;6.82;6.00;;;14.40;99.90;;;;;;5010183;28;20073;-79
2022/08/10 01:15:55;;;;;;;8.80;6.45;;;14.40;99.90;;;;;;5010428;28;20058;-79
2022/08/10 01:18:33;;;;;;;8.77;6.15;;;14.40;99.90;;;;;;4977252;28;20125;-79
2022/08/10 01:21:14;;;;;;;6.95;6.25;;;14.40;99.90;;;;;;4993671;28;20082;-79
2022/08/10 01:24:04;;;;;;;8.13;6.25;;;14.40;99.90;;;;;;5006868;28;20073;-81
2022/08/10 01:26:41;;;;;;;9.18;6.78;;;14.40;99.90;;;;;;5000822;28;20638;-84
2022/08/10 01:29:24;;;;;;;7.80;5.88;;;14.40;99.90;;;;;;5010189;28;20050;-80
2022/08/10 01:31:53;;;;;;;7.57;6.65;;;14.40;99.90;;;;;;5013793;28;20105;-79
2022/08/10 01:34:42;;;;;;;8.32;6.15;;;14.30;99.90;;;;;;5010131;28;20084;-80
2022/08/10 01:37:13;;;;;;;7.72;5.75;;;14.40;99.90;;;;;;4987180;28;20046;-81
2022/08/10 01:39:45;;;;;;;9.02;6.07;;;14.30;99.90;;;;;;5010459;28;20056;-80
2022/08/10 01:42:15;;;;;;;8.10;6.05;;;14.30;99.90;;;;;;5011540;28;20050;-82
2022/08/10 01:44:47;;;;;;;9.40;6.80;;;14.30;99.90;;;;;;5012326;28;20038;-79
2022/08/10 01:50:10;;;;;;;9.57;7.97;;;14.30;99.90;;;;;;4991144;28;20153;-81
2022/08/10 01:52:39;;;;;;;9.55;7.97;;;14.30;99.90;;;;;;4991707;28;20050;-80
2022/08/10 01:55:06;;;;;;;11.65;8.80;;;14.30;99.90;;;;;;4993034;28;20521;-80
2022/08/10 01:57:33;;;;;;;9.52;7.60;;;14.30;99.90;;;;;;4978798;28;20646;-79
2022/08/10 02:00:01;;;;;;;9.80;8.00;;;14.30;99.90;;;;;;5012340;28;20081;-80
2022/08/10 02:02:29;;;;;;;13.00;7.97;;;14.30;99.90;;;;;;4995487;28;20054;-80
2022/08/10 02:04:54;;;;;;;9.70;7.38;;;14.30;99.90;;;;;;4992864;28;20050;-79
2022/08/10 02:07:23;;;;;;;8.82;7.55;;;14.30;99.90;;;;;;4992088;28;20054;-78
2022/08/10 02:09:53;;;;;;;8.70;6.95;;;14.30;99.90;;;;;;5011543;28;20119;-79
2022/08/10 02:12:23;;;;;;;9.23;7.90;;;14.40;99.90;;;;;;4988255;28;20414;-79
2022/08/10 02:14:55;;;;;;;11.23;8.35;;;14.30;99.90;;;;;;4997971;28;20504;-80
2022/08/10 02:17:34;;;;;;;11.63;8.02;;;14.30;99.90;;;;;;4996278;28;20572;-80
2022/08/10 02:20:06;;;;;;;11.57;8.10;;;14.30;99.90;;;;;;5010572;28;20049;-80
2022/08/10 02:22:32;;;;;;;12.45;8.70;;;14.30;99.90;;;;;;5001849;28;20474;-79
2022/08/10 02:25:00;;;;;;;10.57;8.70;;;14.30;99.90;;;;;;5007370;28;20068;-79
2022/08/10 02:27:27;;;;;;;11.90;8.80;;;14.30;99.90;;;;;;4995816;28;20091;-79
2022/08/10 02:29:54;;;;;;;11.38;8.48;;;14.30;99.90;;;;;;5011399;28;20057;-79
2022/08/10 02:32:24;;;;;;;9.80;7.97;;;14.20;99.90;;;;;;5011111;28;20038;-80
2022/08/10 02:34:51;;;;;;;14.32;8.27;;;14.20;99.90;;;;;;5007317;28;20388;-79
2022/08/10 02:37:21;;;;;;;11.13;8.05;;;14.30;99.90;;;;;;4976296;28;20502;-79
2022/08/10 02:39:47;;;;;;;10.02;7.85;;;14.20;99.90;;;;;;4989954;28;20046;-79
2022/08/10 02:42:18;;;;;;;9.73;7.72;;;14.20;99.90;;;;;;4999459;28;20050;-80
2022/08/10 02:44:53;;;;;;;10.05;7.60;;;14.20;99.90;;;;;;5010744;28;20111;-79
2022/08/10 02:47:56;;;;;;;9.35;7.30;;;14.10;99.90;;;;;;4983557;28;20520;-80
2022/08/10 02:50:33;;;;;;;9.27;6.78;;;14.10;99.90;;;;;;4990976;28;20061;-79
2022/08/10 02:53:03;;;;;;;8.10;6.85;;;14.10;99.90;;;;;;4989029;28;20484;-79
2022/08/10 02:55:56;;;;;;;7.75;6.25;;;14.10;99.90;;;;;;4989531;28;20240;-79
2022/08/10 02:58:33;;;;;;;8.98;6.60;;;14.10;99.90;;;;;;4974591;28;20046;-80
2022/08/10 03:01:03;;;;;;;8.57;6.57;;;14.10;99.90;;;;;;4999922;28;20320;-81
2022/08/10 03:03:46;;;;;;;9.15;6.47;;;14.10;99.90;;;;;;5001622;28;20084;-79
2022/08/10 03:06:16;;;;;;;7.18;5.78;;;14.10;99.90;;;;;;5000254;28;20068;-82
2022/08/10 03:08:44;;;;;;;6.95;5.50;;;14.00;99.90;;;;;;5005095;28;20046;-79
2022/08/10 03:11:23;;;;;;;10.38;6.05;;;14.00;99.90;;;;;;5008021;28;20050;-80
2022/08/10 03:13:52;;;;;;;8.82;5.95;;;14.00;99.90;;;;;;5009918;28;20060;-80
2022/08/10 03:16:20;;;;;;;6.75;5.97;;;13.90;99.90;;;;;;4993409;28;20448;-79
2022/08/10 03:18:51;;;;;;;8.02;6.28;;;13.80;99.90;;;;;;4985177;28;20409;-79
2022/08/10 03:21:19;;;;;;;9.35;7.00;;;13.90;99.90;;;;;;4990543;28;20497;-78
2022/08/10 03:23:45;;;;;;;8.10;6.85;;;13.80;99.90;;;;;;5004094;28;20057;-79
2022/08/10 03:26:12;;;;;;;9.10;6.43;;;13.80;99.90;;;;;;5001426;28;20135;-79
2022/08/10 03:28:39;;;;;;;8.18;6.63;;;13.80;99.90;;;;;;5003410;28;20064;-79
2022/08/10 03:31:05;;;;;;;7.68;6.63;;;13.80;99.90;;;;;;5010517;28;20050;-80
2022/08/10 03:33:38;;;;;;;14.07;9.75;;;13.80;99.90;;;;;;5009734;28;20159;-79
2022/08/10 03:36:05;;;;;;;11.65;8.35;;;13.90;99.90;;;;;;5009964;28;20527;-78
2022/08/10 03:38:32;;;;;;;11.18;8.70;;;13.80;99.90;;;;;;4994574;28;20579;-80
2022/08/10 03:41:01;;;;;;;9.82;8.02;;;13.80;99.90;;;;;;5008628;28;20042;-79
2022/08/10 03:43:27;;;;;;;11.80;9.15;;;13.90;99.90;;;;;;5007844;28;20049;-77
2022/08/10 03:45:58;;;;;;;14.85;9.13;;;13.90;99.90;;;;;;5009877;28;20699;-80
2022/08/10 03:48:27;;;;;;;12.40;9.25;;;13.90;99.90;;;;;;4993883;28;20073;-80
2022/08/10 03:50:54;;;;;;;13.45;9.50;;;13.90;99.90;;;;;;5008673;28;20049;-78
2022/08/10 03:53:23;;;;;;;13.38;9.27;;;13.90;99.90;;;;;;5011796;28;20046;-79
2022/08/10 03:55:50;;;;;;;11.90;9.20;;;13.90;99.90;;;;;;5013936;28;20050;-78
2022/08/10 03:58:16;;;;;;;12.13;9.18;;;13.90;99.90;;;;;;4996170;28;20053;-79
2022/08/10 04:00:43;;;;;;;10.88;8.68;;;13.90;99.90;;;;;;5010276;28;20053;-79
2022/08/10 04:03:09;;;;;;;9.95;8.18;;;13.90;99.90;;;;;;5011790;28;20074;-79
2022/08/10 04:05:35;;;;;;;11.75;8.25;;;13.80;99.90;;;;;;4997306;28;20101;-78
2022/08/10 04:08:02;;;;;;;9.48;7.50;;;13.80;99.90;;;;;;4986094;28;20077;-79
2022/08/10 04:10:28;;;;;;;9.38;7.20;;;13.80;99.90;;;;;;5012212;28;20073;-79
2022/08/10 04:12:55;;;;;;;10.40;8.00;;;13.80;99.90;;;;;;5008221;28;20047;-79
2022/08/10 04:15:23;;;;;;;11.23;8.50;;;13.80;99.90;;;;;;5004277;28;20043;-79
2022/08/10 04:17:49;;;;;;;11.63;7.80;;;13.80;99.90;;;;;;4977440;28;20039;-80
2022/08/10 04:20:33;;;;;;;11.05;8.77;;;13.80;99.90;;;;;;4994069;28;20104;-79
2022/08/10 04:23:04;;;;;;;13.63;9.32;;;13.80;99.90;;;;;;5006280;28;20539;-79
2022/08/10 04:25:31;;;;;;;15.52;8.90;;;13.90;99.90;;;;;;5010958;28;20042;-78
2022/08/10 04:27:57;;;;;;;18.35;10.02;;;13.90;99.90;;;;;;4995585;28;20408;-78
2022/08/10 04:30:23;;;;;;;14.38;10.23;;;14.00;99.90;;;;;;5013442;28;20486;-77
2022/08/10 04:32:52;;;;;;;11.77;9.93;;;14.00;99.90;;;;;;5010527;28;20145;-79
2022/08/10 04:35:19;;;;;;;14.52;9.65;;;14.10;99.90;;;;;;5011923;28;20065;-79
2022/08/10 04:37:47;;;;;;;13.48;9.90;;;14.00;99.90;;;;;;4980639;28;20054;-78
2022/08/10 04:40:14;;;;;;;14.85;10.32;;;14.10;99.90;;;;;;5000190;28;20056;-78
2022/08/10 04:42:40;;;;;;;13.90;10.05;;;14.20;99.90;;;;;;5009539;28;20044;-77
2022/08/10 04:45:10;;;;;;;13.00;9.63;;;14.20;99.90;;;;;;5011530;28;20050;-78
2022/08/10 04:47:37;;;;;;;12.70;9.82;;;14.20;99.90;;;;;;4982207;28;20564;-78
2022/08/10 04:50:03;;;;;;;14.63;10.57;;;14.30;99.90;;;;;;4992495;28;20046;-79
2022/08/10 04:52:28;;;;;;;15.00;9.95;;;14.30;99.90;;;;;;5006306;28;20095;-78
2022/08/10 04:54:54;;;;;;;13.85;9.75;;;14.20;99.90;;;;;;5005913;28;20046;-78
2022/08/10 04:57:20;;;;;;;11.57;9.85;;;14.30;99.90;;;;;;4976649;28;20090;-79
2022/08/10 04:59:45;;;;;;;14.95;9.60;;;14.40;99.90;;;;;;4999155;28;20045;-79
2022/08/10 05:02:11;;;;;;;15.65;10.07;;;14.40;99.90;;;;;;4998643;28;20050;-78
2022/08/10 05:04:37;;;;;;;15.00;9.77;;;14.50;99.90;;;;;;4992760;28;20038;-77
2022/08/10 05:07:08;;;;;;;16.80;10.63;;;14.50;99.90;;;;;;4977492;28;20116;-78
2022/08/10 05:09:33;;;;;;;15.80;11.10;;;14.60;99.90;;;;;;4992165;28;20050;-78
2022/08/10 05:11:59;;;;;;;15.75;10.68;;;14.70;99.90;;;;;;4994336;28;20297;-76
2022/08/10 05:14:25;;;;;;;16.17;11.57;;;14.70;99.90;;;;;;5001056;28;20042;-78
2022/08/10 05:16:50;;;;;;;18.10;10.98;;;14.80;99.90;;;;;;4986934;28;20101;-79
2022/08/10 05:19:16;;;;;;;17.75;10.75;;;15.00;99.90;;;;;;5000120;28;20080;-77
2022/08/10 05:21:43;;;;;;;16.77;11.80;;;15.10;99.90;;;;;;4999969;28;20042;-79
2022/08/10 05:24:09;;;;;;;17.20;11.38;;;15.20;99.90;;;;;;5008042;28;20046;-79
2022/08/10 05:26:35;;;;;;;20.92;11.98;;;15.30;99.90;;;;;;4998669;28;20408;-80
2022/08/10 05:29:00;;;;;;;17.73;12.18;;;15.40;99.90;;;;;;5009662;28;20401;-77
2022/08/10 05:31:26;;;;;;;20.08;11.98;;;15.60;99.90;;;;;;5011254;28;21327;-78
2022/08/10 05:33:52;;;;;;;17.73;12.20;;;15.80;99.90;;;;;;5002362;28;20050;-78
2022/08/10 05:36:18;;;;;;;14.65;11.25;;;16.00;99.90;;;;;;4989224;28;20038;-80
2022/08/10 05:38:45;;;;;;;14.35;11.30;;;16.20;99.90;;;;;;5007300;28;20100;-79
2022/08/10 05:41:12;;;;;;;13.18;9.93;;;16.40;99.90;;;;;;5010154;28;20069;-77
2022/08/10 05:43:39;;;;;;;12.00;9.73;;;16.50;99.90;;;;;;5011163;28;20069;-78
2022/08/10 05:46:04;;;;;;;15.77;10.00;;;16.70;99.90;;;;;;5010415;28;20133;-78
2022/08/10 05:48:30;;;;;;;18.33;9.85;;;17.00;99.90;;;;;;4976253;28;20130;-78
2022/08/10 05:50:56;;;;;;;14.55;9.38;;;17.10;99.90;;;;;;5006559;28;20060;-78
2022/08/10 05:53:22;;;;;;;13.85;8.77;;;17.10;99.90;;;;;;5009636;28;20042;-78
2022/08/10 05:55:48;;;;;;;15.40;9.73;;;17.20;99.90;;;;;;5010314;28;20405;-77
2022/08/10 05:58:13;;;;;;;12.43;9.32;;;17.40;99.90;;;;;;4995403;28;20053;-78
2022/08/10 06:00:41;;;;;;;16.50;8.98;;;17.50;99.90;;;;;;5010346;28;20057;-78
2022/08/10 06:03:07;;;;;;;16.83;9.40;;;17.80;99.90;;;;;;5002381;28;20141;-78
2022/08/10 06:05:36;;;;;;;11.38;7.65;;;17.90;99.90;;;;;;4990446;28;20067;-77
2022/08/10 06:08:14;;;;;;;10.18;7.82;;;18.00;99.90;;;;;;4983218;28;20080;-78
2022/08/10 06:10:42;;;;;;;11.77;8.07;;;18.10;99.90;;;;;;5009815;28;20061;-78
2022/08/10 06:15:55;;;;;;;12.50;8.50;;;18.40;99.90;;;;;;5002083;28;20453;-78
2022/08/10 06:18:22;;;;;;;12.45;7.32;;;18.60;99.90;;;;;;4989868;28;20057;-78
2022/08/10 06:20:49;;;;;;;9.07;7.32;;;18.70;99.90;;;;;;5002115;28;20054;-78
2022/08/10 06:23:16;;;;;;;10.63;7.68;;;18.80;99.90;;;;;;5001384;28;20045;-79
2022/08/10 06:25:42;;;;;;;9.70;6.97;;;18.90;99.90;;;;;;5010061;28;20576;-80
2022/08/10 06:28:12;;;;;;;10.23;7.13;;;19.10;99.90;;;;;;4993601;28;20046;-78
2022/08/10 06:30:39;;;;;;;9.07;7.18;;;19.20;99.90;;;;;;5011325;28;20111;-79
2022/08/10 06:33:07;;;;;;;9.68;7.25;;;19.30;99.90;;;;;;5008661;28;20049;-78
2022/08/10 06:35:34;;;;;;;10.15;6.90;;;19.40;99.90;;;;;;5001230;28;20124;-77
2022/08/10 06:38:03;;;;;;;10.07;6.97;;;19.40;99.90;;;;;;4987239;28;20081;-78
2022/08/10 06:40:35;;;;;;;8.27;6.10;;;19.50;99.90;;;;;;4991147;28;20695;-79
2022/08/10 06:43:04;;;;;;;11.60;6.35;;;19.50;99.90;;;;;;5006055;28;20053;-79
2022/08/10 06:45:40;;;;;;;9.02;5.47;;;19.60;99.90;;;;;;5010759;28;20390;-79
2022/08/10 06:48:20;;;;;;;7.82;5.82;;;19.70;99.90;;;;;;4977297;28;20082;-79
2022/08/10 06:50:53;;;;;;;9.23;5.00;;;19.70;99.90;;;;;;4989845;28;20053;-79
2022/08/10 06:53:29;;;;;;;8.38;5.63;;;19.70;99.90;;;;;;4990247;28;20086;-79
2022/08/10 06:55:58;;;;;;;7.47;5.75;;;19.70;99.90;;;;;;4989648;28;20042;-78
2022/08/10 06:58:51;;;;;;;8.02;5.15;;;19.80;99.90;;;;;;4984345;28;20073;-79
2022/08/10 07:01:21;;;;;;;9.15;5.18;;;20.00;99.90;;;;;;4982665;28;20390;-78
2022/08/10 07:04:05;;;;;;;8.60;4.80;;;19.90;99.90;;;;;;4990387;28;20534;-78
2022/08/10 07:06:33;;;;;;;6.28;4.25;;;19.80;99.90;;;;;;4975571;28;20792;-79
2022/08/10 07:09:00;;;;;;;5.00;3.85;;;19.70;99.90;;;;;;4988468;28;20501;-78
2022/08/10 07:11:29;;;;;;;7.32;4.05;;;19.90;99.90;;;;;;4992076;28;20046;-78
2022/08/10 07:13:57;;;;;;;6.50;4.30;;;20.00;99.90;;;;;;5003974;28;20103;-78
2022/08/10 07:16:27;;;;;;;5.63;3.67;;;20.00;99.90;;;;;;4991357;28;20043;-77
2022/08/10 07:18:55;;;;;;;8.43;4.82;;;20.10;99.90;;;;;;4986767;28;20050;-76
2022/08/10 07:21:27;;;;;;;6.97;3.83;;;20.30;99.90;;;;;;4985405;28;20045;-77
2022/08/10 07:23:54;;;;;;;5.55;3.67;;;20.30;99.90;;;;;;5004247;28;20050;-77
2022/08/10 07:26:21;;;;;;;5.10;3.08;;;20.30;99.90;;;;;;4998545;28;20077;-77
2022/08/10 07:28:49;;;;;;;8.07;3.47;;;20.30;99.90;;;;;;4983911;28;20516;-78
2022/08/10 07:31:17;;;;;;;4.57;3.10;;;20.40;99.90;;;;;;5004389;28;20045;-78
2022/08/10 07:33:45;;;;;;;6.07;3.00;;;20.30;99.90;;;;;;5009434;28;20077;-76
2022/08/10 07:36:11;;;;;;;5.80;2.58;;;20.30;99.90;;;;;;5000716;28;20398;-78
2022/08/10 07:38:39;;;;;;;4.20;2.50;;;20.40;99.90;;;;;;4992573;28;20160;-76
2022/08/10 07:41:06;;;;;;;5.63;2.40;;;20.40;99.90;;;;;;4989268;28;20551;-75
2022/08/10 07:43:37;;;;;;;5.03;2.78;;;20.40;99.90;;;;;;4988647;28;20147;-75
2022/08/10 07:46:11;;;;;;;2.83;2.15;;;20.40;99.90;;;;;;5003370;28;20034;-76
2022/08/10 07:48:43;;;;;;;4.65;2.20;;;20.40;99.90;;;;;;4980990;28;20057;-76
2022/08/10 07:51:11;;;;;;;3.45;2.45;;;20.40;99.90;;;;;;5003338;28;20043;-75
2022/08/10 07:53:45;;;;;;;4.30;2.20;;;20.40;99.90;;;;;;4989912;28;20053;-75
2022/08/10 07:56:12;;;;;;;5.65;2.38;;;20.40;99.90;;;;;;4980806;28;20058;-78
2022/08/10 07:58:48;;;;;;;5.38;2.88;;;20.40;99.90;;;;;;4983678;28;20108;-75
2022/08/10 08:01:15;;;;;;;3.63;2.47;;;20.50;99.90;;;;;;4995911;28;20049;-76
2022/08/10 08:03:41;;;;;;;3.28;2.20;;;20.50;99.90;;;;;;5008500;28;20046;-77
2022/08/10 08:06:08;;;;;;;4.82;2.35;;;20.50;99.90;;;;;;4985336;28;20090;-80
2022/08/10 08:08:36;;;;;;;6.30;2.20;;;20.60;99.90;;;;;;4980422;28;20509;-77
2022/08/10 08:11:05;;;;;;;5.40;3.10;;;20.70;99.90;;;;;;4993042;28;20045;-77
2022/08/10 08:13:32;;;;;;;5.90;2.80;;;20.70;99.90;;;;;;5009117;28;20053;-78
2022/08/10 08:16:03;;;;;;;7.15;2.80;;;20.60;99.90;;;;;;5013182;28;20053;-75
2022/08/10 08:18:30;;;;;;;3.22;2.00;;;20.70;99.90;;;;;;4977757;28;20069;-78
2022/08/10 08:20:57;;;;;;;4.40;2.10;;;20.70;99.90;;;;;;4990438;28;20050;-78
2022/08/10 08:23:26;;;;;;;4.68;2.30;;;20.70;99.90;;;;;;5000953;28;20494;-77
2022/08/10 08:25:53;;;;;;;6.25;1.85;;;20.70;99.90;;;;;;5008109;28;20501;-77
2022/08/10 08:28:19;;;;;;;5.38;2.20;;;20.70;99.90;;;;;;4993304;28;20170;-77
2022/08/10 08:30:46;;;;;;;5.30;2.42;;;20.80;99.90;;;;;;5009424;28;20048;-78
2022/08/10 08:33:18;;;;;;;3.03;1.98;;;20.80;99.90;;;;;;5007787;28;20078;-77
2022/08/10 08:35:45;;;;;;;4.50;1.95;;;20.90;99.90;;;;;;5008422;28;20045;-74
2022/08/10 08:38:12;;;;;;;4.90;1.90;;;20.90;99.90;;;;;;4994889;28;20138;-78
2022/08/10 08:40:42;;;;;;;5.82;2.10;;;21.00;99.90;;;;;;5013134;28;20049;-79
2022/08/10 08:43:26;;;;;;;3.55;2.13;;;21.00;99.90;;;;;;5012173;28;20070;-75
2022/08/10 08:46:33;;;;;;;3.15;2.00;;;21.10;99.90;;;;;;5011921;28;20099;-78
2022/08/10 08:49:01;;;;;;;4.13;2.35;;;21.10;99.90;;;;;;5010516;28;20054;-79
2022/08/10 08:51:54;;;;;;;6.03;2.70;;;21.20;99.90;;;;;;4993576;28;20043;-78
2022/08/10 08:54:31;;;;;;;3.30;2.30;;;21.10;99.90;;;;;;4975072;28;20052;-80
2022/08/10 08:57:41;;;;;;;2.80;1.92;;;21.10;99.90;;;;;;4977905;28;20189;-78
2022/08/10 09:00:08;;;;;;;5.38;2.17;;;21.30;99.90;;;;;;4997357;28;20045;-79
2022/08/10 09:02:49;;;;;;;5.03;1.73;;;21.50;99.90;;;;;;5006946;28;20692;-79
2022/08/10 09:06:07;;;;;;;4.85;1.98;;;21.50;99.90;;;;;;5004131;28;20042;-78
2022/08/10 09:08:57;;;;;;;3.20;1.88;;;21.60;99.90;;;;;;4932980;28;20482;-79
2022/08/10 09:11:49;;;;;;;3.35;1.80;;;21.70;99.90;;;;;;5012015;28;20049;-81
2022/08/10 09:14:37;;;;;;;6.38;2.08;;;21.70;99.90;;;;;;4992305;28;20050;-78
2022/08/10 09:17:19;;;;;;;7.40;1.98;;;21.80;99.90;;;;;;4977713;28;20050;-78
2022/08/10 09:20:09;;;;;;;3.63;1.90;;;21.90;99.90;;;;;;5004684;28;20053;-79
2022/08/10 09:22:50;;;;;;;3.38;1.98;;;21.90;99.90;;;;;;5001640;28;20468;-80
2022/08/10 09:25:25;;;;;;;3.17;2.05;;;21.80;99.90;;;;;;5012409;28;20042;-78
2022/08/10 09:28:10;;;;;;;8.68;2.42;;;21.90;99.90;;;;;;4982762;28;20038;-78
2022/08/10 09:31:05;;;;;;;4.05;2.30;;;22.00;99.90;;;;;;5002525;28;20140;-78
2022/08/10 09:33:59;;;;;;;4.45;2.40;;;22.10;99.90;;;;;;5009951;28;20065;-79
2022/08/10 09:36:29;;;;;;;9.38;2.00;;;22.10;99.90;;;;;;4964761;28;20609;-78
2022/08/10 09:39:04;;;;;;;4.90;2.05;;;21.90;99.90;;;;;;4990106;28;20386;-78
2022/08/10 09:41:29;;;;;;;6.00;2.28;;;22.10;99.90;;;;;;4995275;28;20077;-76
2022/08/10 09:44:22;;;;;;;3.55;2.03;;;22.20;99.90;;;;;;5011166;28;20077;-75
2022/08/10 09:46:55;;;;;;;4.80;2.20;;;22.20;99.90;;;;;;4986861;28;20112;-77
2022/08/10 09:49:39;;;;;;;5.18;2.20;;;22.20;99.90;;;;;;4995093;28;20440;-77
2022/08/10 09:52:22;;;;;;;5.68;1.83;;;22.20;99.90;;;;;;4991729;28;20129;-77
2022/08/10 09:55:05;;;;;;;4.03;1.63;;;22.30;99.90;;;;;;4998908;28;20038;-77
2022/08/10 09:57:59;;;;;;;4.90;1.90;;;22.40;99.90;;;;;;4995249;28;20050;-76
2022/08/10 10:00:33;;;;;;;4.80;1.80;;;22.40;99.90;;;;;;5011917;28;20053;-76
2022/08/10 10:03:07;;;;;;;4.25;1.80;;;22.50;99.90;;;;;;5009086;28;20514;-77
2022/08/10 10:05:49;;;;;;;3.55;1.67;;;22.40;99.90;;;;;;4996024;28;20054;-77
2022/08/10 10:08:29;;;;;;;4.57;1.67;;;22.40;99.90;;;;;;4975543;28;20092;-78
2022/08/10 10:11:02;;;;;;;5.65;2.10;;;22.50;99.90;;;;;;4992020;28;20057;-77
2022/08/10 10:13:37;;;;;;;6.53;2.08;;;22.50;99.90;;;;;;4990934;28;20043;-74
2022/08/10 10:16:45;;;;;;;3.42;2.10;;;22.50;99.90;;;;;;5009490;28;20544;-77
2022/08/10 10:19:31;;;;;;;6.38;2.42;;;22.70;99.90;;;;;;5010294;28;20493;-76
2022/08/10 10:22:09;;;;;;;4.05;2.22;;;22.60;99.90;;;;;;5011265;28;20493;-77
2022/08/10 10:24:44;;;;;;;4.65;2.13;;;22.60;99.90;;;;;;5007451;28;20476;-77
2022/08/10 10:27:29;;;;;;;7.28;2.10;;;22.70;99.90;;;;;;4981520;28;20038;-76
2022/08/10 10:29:57;;;;;;;3.58;2.08;;;22.80;99.90;;;;;;4991765;28;20042;-79
2022/08/10 10:32:38;;;;;;;2.75;1.80;;;22.80;99.90;;;;;;4990660;28;20524;-76
2022/08/10 10:35:22;;;;;;;3.28;2.00;;;22.90;99.90;;;;;;4989776;28;20055;-77
2022/08/10 10:37:51;;;;;;;3.90;2.03;;;22.90;99.90;;;;;;4975897;28;20054;-78
2022/08/10 10:40:18;;;;;;;3.25;2.00;;;23.00;99.90;;;;;;5000918;28;20527;-77
2022/08/10 10:42:49;;;;;;;3.80;2.38;;;23.00;99.90;;;;;;5007014;28;20401;-78
2022/08/10 10:45:23;;;;;;;3.35;1.50;;;23.00;99.90;;;;;;5009448;28;20056;-77
2022/08/10 10:48:26;;;;;;;3.05;1.92;;;23.00;99.90;;;;;;4979486;28;20035;-77
2022/08/10 10:51:14;;;;;;;4.45;1.95;;;23.10;99.90;;;;;;4973662;28;20386;-77
2022/08/10 10:53:58;;;;;;;2.63;1.85;;;23.10;99.90;;;;;;4988840;28;20531;-77
2022/08/10 10:56:43;;;;;;;2.80;1.80;;;23.10;99.90;;;;;;4981037;28;20049;-78
2022/08/10 10:59:19;;;;;;;2.45;1.52;;;23.10;99.90;;;;;;4990038;28;20148;-75
2022/08/10 11:02:20;;;;;;;3.15;1.80;;;23.20;99.90;;;;;;4989606;28;20092;-76
2022/08/10 11:04:51;;;;;;;3.03;1.40;;;23.20;99.90;;;;;;4996294;28;20141;-76
2022/08/10 11:07:26;;;;;;;8.73;1.58;;;23.40;99.90;;;;;;4977648;28;20054;-77
2022/08/10 11:10:05;;;;;;;4.47;1.63;;;23.40;99.90;;;;;;5009524;28;20050;-77
2022/08/10 11:12:56;;;;;;;2.17;1.08;;;23.40;99.90;;;;;;5007898;28;20125;-76
2022/08/10 11:15:37;;;;;;;1.52;0.80;;;23.60;99.90;;;;;;5012346;28;20046;-77
2022/08/10 11:18:38;;;;;;;3.60;1.17;;;23.60;99.90;;;;;;4974616;28;20065;-77
2022/08/10 11:21:36;;;;;;;3.53;1.15;;;23.50;99.90;;;;;;4968880;28;20081;-75
2022/08/10 11:24:18;;;;;;;4.50;1.40;;;23.60;99.90;;;;;;4945617;28;20078;-76
2022/08/10 11:27:10;;;;;;;3.80;1.38;;;23.60;99.90;;;;;;4992522;28;20435;-81
2022/08/10 11:30:04;;;;;;;5.22;1.33;;;23.60;99.90;;;;;;5008248;28;20460;-76
2022/08/10 11:33:02;;;;;;;2.88;1.05;;;23.80;99.90;;;;;;5008234;28;20493;-76
2022/08/10 11:35:36;;;;;;;4.15;1.45;;;24.00;99.90;;;;;;4996025;28;20081;-76
2022/08/10 11:38:31;;;;;;;3.65;1.20;;;23.90;99.90;;;;;;4994245;28;20053;-77
2022/08/10 11:41:20;;;;;;;6.15;1.48;;;24.10;99.90;;;;;;5010120;28;20062;-76
2022/08/10 11:43:55;;;;;;;3.55;1.25;;;24.10;99.90;;;;;;5000988;28;20056;-75
2022/08/10 11:46:30;;;;;;;3.65;0.77;;;24.10;99.90;;;;;;4996139;28;20046;-77
2022/08/10 11:49:03;;;;;;;2.15;0.77;;;24.30;99.90;;;;;;4999410;28;20050;-76
2022/08/10 11:51:46;;;;;;;2.65;0.88;;;24.30;99.90;;;;;;4989833;28;20112;-77
2022/08/10 11:54:38;;;;;;;5.20;0.90;;;24.30;99.90;;;;;;4988042;28;20053;-76
2022/08/10 11:57:04;;;;;;;3.40;0.88;;;24.30;99.90;;;;;;4974621;28;20482;-70
2022/08/10 12:02:20;;;;;;;3.15;0.82;;;24.30;99.90;;;;;;5008929;28;20104;-75
2022/08/10 12:05:06;;;;;;;4.88;0.98;;;24.40;99.90;;;;;;4994851;28;20053;-78
2022/08/10 12:07:34;;;;;;;2.25;0.88;;;24.40;99.90;;;;;;4973692;28;20158;-76
2022/08/10 12:10:00;;;;;;;2.10;0.80;;;24.30;99.90;;;;;;4990363;28;20065;-78
2022/08/10 12:12:33;;;;;;;2.88;0.90;;;24.30;99.90;;;;;;5003028;28;20046;-77
2022/08/10 12:15:02;;;;;;;3.00;1.00;;;24.40;99.90;;;;;;5017978;28;20065;-76
2022/08/10 12:17:34;;;;;;;2.42;0.82;;;24.50;99.90;;;;;;4975863;28;20805;-77
2022/08/10 12:20:31;;;;;;;4.55;0.90;;;24.50;99.90;;;;;;4994177;28;20054;-77
2022/08/10 12:23:18;;;;;;;1.50;0.90;;;24.50;99.90;;;;;;5005929;28;20053;-76
2022/08/10 12:26:14;;;;;;;2.58;0.80;;;24.50;99.90;;;;;;5002428;28;20077;-77
2022/08/10 12:28:52;;;;;;;3.35;0.98;;;24.50;99.90;;;;;;4993804;28;20057;-76
2022/08/10 12:31:25;;;;;;;2.60;0.90;;;24.70;99.90;;;;;;4998054;28;20042;-76
2022/08/10 12:34:11;;;;;;;2.25;0.98;;;24.70;99.90;;;;;;4991414;28;20490;-76
2022/08/10 12:36:43;;;;;;;2.45;0.88;;;24.70;99.90;;;;;;4986620;28;20453;-77
2022/08/10 12:39:32;;;;;;;2.20;0.73;;;24.60;99.90;;;;;;4999332;28;20058;-76
2022/08/10 12:42:00;;;;;;;2.15;0.93;;;24.80;99.90;;;;;;5012441;28;20034;-77
2022/08/10 12:44:32;;;;;;;5.00;1.00;;;24.70;99.90;;;;;;4994058;28;20054;-76
2022/08/10 12:47:17;;;;;;;3.95;0.90;;;24.80;99.90;;;;;;4989605;28;20042;-75
2022/08/10 12:49:56;;;;;;;2.30;0.65;;;24.80;99.90;;;;;;4992580;28;20046;-76
2022/08/10 12:52:41;;;;;;;2.05;0.60;;;25.00;99.90;;;;;;4991429;28;20055;-75
2022/08/10 12:55:10;;;;;;;2.00;0.73;;;24.90;99.90;;;;;;5002229;28;20049;-78
2022/08/10 12:57:37;;;;;;;3.15;0.90;;;24.80;99.90;;;;;;4996282;28;20038;-77
2022/08/10 13:00:05;;;;;;;0.77;0.70;;;24.80;99.90;;;;;;5011643;28;20127;-76
2022/08/10 13:02:35;;;;;;;6.32;0.80;;;24.80;99.90;;;;;;5011781;28;20382;-76
2022/08/10 13:05:07;;;;;;;5.07;0.93;;;24.90;99.90;;;;;;5001960;28;20038;-76
2022/08/10 13:07:43;;;;;;;2.97;1.00;;;24.80;99.90;;;;;;4974822;28;20042;-76
2022/08/10 13:10:14;;;;;;;3.80;1.05;;;24.90;99.90;;;;;;4993302;28;20102;-77
2022/08/10 13:12:49;;;;;;;3.90;0.70;;;24.90;99.90;;;;;;5008009;28;20038;-76
2022/08/10 13:15:24;;;;;;;1.40;0.63;;;24.90;99.90;;;;;;5015348;28;20050;-74
2022/08/10 13:17:52;;;;;;;2.88;0.88;;;25.10;99.90;;;;;;4976533;28;20042;-76
2022/08/10 13:20:39;;;;;;;1.48;0.80;;;25.10;99.90;;;;;;4992511;28;20050;-76
2022/08/10 13:23:25;;;;;;;2.30;0.93;;;25.10;99.90;;;;;;5005591;28;20068;-73